Time;durP1;ratioP1;P1;durP2;ratioP2;P2;SDS_P1;SDS_P2;PMS_P1;PMS_P2;Temp;Humidity;BMP_temperature;BMP_pressure;BME280_temperature;BME280_humidity;BME280_pressure;Samples;Min_cycle;Max_cycle;Signal;HPM_P1;HPM_P2
2023/09/21 00:01:55;;;;;;;3.78;2.85;;;;;;;4.88;67.21;97758.75;6199635;28;20058;-69
2023/09/21 00:05:01;;;;;;;;;;;;;;;4.75;67.05;97752.16;6200371;28;20418;-70
2023/09/21 00:08:05;;;;;;;;;;;;;;;4.59;67.14;97745.69;6200313;28;19922;-68
2023/09/21 00:11:11;;;;;;;6.43;2.60;;;;;;;4.46;67.10;97751.19;6198911;28;20381;-68
2023/09/21 00:14:15;;;;;;;6.88;3.30;;;;;;;4.44;67.20;97763.41;6198481;28;20058;-69
2023/09/21 00:17:18;;;;;;;4.55;2.80;;;;;;;4.35;67.37;97758.44;6198440;28;20049;-69
2023/09/21 00:20:32;;;;;;;4.63;3.08;;;;;;;4.21;67.37;97750.13;6198587;28;20038;-70
2023/09/21 00:23:40;;;;;;;5.22;3.15;;;;;;;4.24;67.74;97747.44;6201033;28;20506;-70
2023/09/21 00:26:46;;;;;;;8.98;2.80;;;;;;;4.23;67.93;97748.34;6197325;28;20077;-70
2023/09/21 00:29:49;;;;;;;4.53;2.30;;;;;;;4.20;68.36;97753.63;6197517;28;20069;-70
2023/09/21 00:32:54;;;;;;;3.97;2.35;;;;;;;4.13;68.12;97746.84;6199146;28;20042;-70
2023/09/21 00:35:58;;;;;;;4.82;2.33;;;;;;;4.15;68.33;97752.88;6198681;28;20317;-69
2023/09/21 00:39:03;;;;;;;3.35;2.30;;;;;;;4.09;68.46;97755.66;6198180;28;20133;-70
2023/09/21 00:42:05;;;;;;;4.05;2.42;;;;;;;4.07;68.36;97747.00;6197795;28;20054;-69
2023/09/21 00:45:08;;;;;;;6.53;3.20;;;;;;;4.04;68.47;97754.00;6196894;28;20050;-69
2023/09/21 00:48:12;;;;;;;5.68;2.30;;;;;;;3.98;68.57;97751.56;6197376;28;20038;-69
2023/09/21 00:51:18;;;;;;;2.97;2.30;;;;;;;3.86;68.35;97738.00;6198645;28;20038;-69
2023/09/21 00:54:21;;;;;;;4.15;2.00;;;;;;;3.94;68.49;97751.69;6199219;28;20053;-69
2023/09/21 00:57:26;;;;;;;4.30;2.65;;;;;;;3.88;68.58;97752.69;6198726;28;20047;-70
2023/09/21 01:00:30;;;;;;;3.78;2.40;;;;;;;3.84;68.49;97738.00;6198411;28;20061;-69
2023/09/21 01:03:37;;;;;;;3.10;2.50;;;;;;;3.86;68.78;97753.63;6198408;28;20046;-69
2023/09/21 01:06:41;;;;;;;3.38;2.15;;;;;;;4.01;68.88;97754.06;6198802;28;20046;-69
2023/09/21 01:09:44;;;;;;;2.28;1.75;;;;;;;4.18;69.50;97745.84;6197844;28;20046;-69
2023/09/21 01:12:50;;;;;;;3.80;2.88;;;;;;;4.22;69.48;97751.84;6198871;28;20061;-71
2023/09/21 01:16:03;;;;;;;4.38;2.28;;;;;;;4.17;70.29;97744.16;6198386;28;20098;-70
2023/09/21 01:19:04;;;;;;;5.43;1.98;;;;;;;4.21;70.00;97745.75;6198134;28;20061;-70
2023/09/21 01:22:11;;;;;;;2.67;1.48;;;;;;;4.40;69.94;97756.56;6198247;28;20053;-70
2023/09/21 01:25:15;;;;;;;5.72;2.08;;;;;;;4.49;69.83;97758.94;6198559;28;20057;-69
2023/09/21 01:28:22;;;;;;;5.35;2.85;;;;;;;4.42;69.86;97760.00;6197356;28;20058;-68
2023/09/21 01:31:26;;;;;;;3.92;2.38;;;;;;;4.32;69.99;97755.91;6198126;28;20200;-69
2023/09/21 01:34:31;;;;;;;7.35;2.08;;;;;;;4.28;70.39;97757.75;6197886;28;20562;-69
2023/09/21 01:37:36;;;;;;;3.65;2.28;;;;;;;4.26;70.32;97758.69;6197782;28;20053;-69
2023/09/21 01:40:43;;;;;;;4.55;1.45;;;;;;;4.46;70.44;97760.78;6197064;28;20629;-69
2023/09/21 01:43:47;;;;;;;1.40;1.30;;;;;;;4.50;70.27;97759.78;6197573;28;20050;-69
2023/09/21 01:46:52;;;;;;;2.03;1.60;;;;;;;4.55;70.23;97754.47;6197575;28;20145;-70
2023/09/21 01:49:57;;;;;;;2.72;1.65;;;;;;;4.56;70.20;97756.16;6197864;28;20043;-70
2023/09/21 01:52:59;;;;;;;1.92;1.58;;;;;;;4.66;70.17;97762.84;6197473;28;20065;-70
2023/09/21 01:56:00;;;;;;;3.13;2.00;;;;;;;4.55;70.03;97762.28;6197366;28;20059;-69
2023/09/21 01:59:05;;;;;;;3.30;2.05;;;;;;;4.43;70.27;97760.84;6180070;28;20141;-70
2023/09/21 02:02:10;;;;;;;7.57;2.30;;;;;;;4.32;70.31;97755.06;6197114;28;20042;-69
2023/09/21 02:05:15;;;;;;;6.80;2.50;;;;;;;4.22;70.32;97757.91;6196603;28;20129;-70
2023/09/21 02:08:22;;;;;;;6.82;2.40;;;;;;;4.17;70.22;97753.72;6196975;28;20046;-70
2023/09/21 02:11:26;;;;;;;7.00;3.45;;;;;;;4.13;70.17;97757.28;6196525;28;20510;-70
2023/09/21 02:14:28;;;;;;;;;;;;;;;4.05;70.46;97750.53;6195580;28;20540;-70
2023/09/21 02:17:34;;;;;;;5.25;3.55;;;;;;;4.05;69.88;97758.34;6196718;28;20406;-71
2023/09/21 02:20:44;;;;;;;6.05;3.63;;;;;;;4.12;69.91;97758.19;6195867;28;20053;-69
2023/09/21 02:23:46;;;;;;;4.72;1.88;;;;;;;4.24;69.71;97760.47;6195990;28;20065;-70
2023/09/21 02:26:50;;;;;;;3.40;2.10;;;;;;;4.39;69.53;97770.50;6196991;28;20046;-70
2023/09/21 02:29:55;;;;;;;4.30;2.80;;;;;;;4.58;69.50;97764.81;6196210;28;20050;-69
2023/09/21 02:32:57;;;;;;;6.70;1.95;;;;;;;4.75;69.19;97780.84;6196370;28;20213;-69
2023/09/21 02:36:01;;;;;;;3.35;1.50;;;;;;;4.87;68.77;97767.50;6196636;28;20514;-70
2023/09/21 02:39:08;;;;;;;1.77;1.20;;;;;;;5.09;68.67;97779.91;6195900;28;20057;-69
2023/09/21 02:42:10;;;;;;;1.95;1.40;;;;;;;5.20;68.39;97790.91;6195490;28;20081;-70
2023/09/21 02:45:12;;;;;;;3.97;2.17;;;;;;;5.29;68.48;97787.16;6195829;28;20537;-70
2023/09/21 02:48:16;;;;;;;6.95;1.65;;;;;;;5.22;68.69;97767.38;6196451;28;20417;-69
2023/09/21 02:51:20;;;;;;;10.85;4.25;;;;;;;5.31;68.58;97783.59;6195400;28;20050;-68
2023/09/21 02:54:24;;;;;;;4.75;2.30;;;;;;;5.39;68.50;97784.25;6196241;28;20045;-69
2023/09/21 02:57:30;;;;;;;2.17;1.83;;;;;;;5.43;68.42;97777.16;6195927;28;20465;-69
2023/09/21 03:00:39;;;;;;;6.93;2.72;;;;;;;5.60;67.85;97784.50;6195914;28;20042;-70
2023/09/21 03:03:44;;;;;;;4.20;1.77;;;;;;;5.64;67.95;97767.84;6195783;28;20537;-70
2023/09/21 03:06:48;;;;;;;4.45;2.10;;;;;;;5.73;67.73;97788.44;6196064;28;20449;-68
2023/09/21 03:09:54;;;;;;;5.43;1.83;;;;;;;5.76;67.62;97788.34;6194815;28;20053;-69
2023/09/21 03:12:58;;;;;;;4.40;1.90;;;;;;;5.85;67.53;97795.91;6195079;28;20077;-69
2023/09/21 03:16:05;;;;;;;5.20;2.22;;;;;;;5.98;67.16;97798.19;6194705;28;20050;-68
2023/09/21 03:19:08;;;;;;;3.88;1.70;;;;;;;6.02;67.04;97797.16;6195041;28;20547;-70
2023/09/21 03:22:17;;;;;;;6.85;2.30;;;;;;;6.13;66.74;97784.59;6194746;28;20212;-69
2023/09/21 03:25:29;;;;;;;5.53;2.05;;;;;;;6.27;66.71;97792.84;6195585;28;20709;-69
2023/09/21 03:28:31;;;;;;;6.22;2.03;;;;;;;6.35;66.45;97805.66;6193158;28;20442;-69
2023/09/21 03:31:33;;;;;;;3.60;1.52;;;;;;;6.37;66.79;97792.53;6194679;28;20046;-69
2023/09/21 03:34:36;;;;;;;3.25;2.08;;;;;;;6.45;66.63;97806.22;6194035;28;20173;-69
2023/09/21 03:37:50;;;;;;;1.60;1.30;;;;;;;6.60;66.46;97804.84;6194689;28;20078;-69
2023/09/21 03:40:56;;;;;;;2.75;1.23;;;;;;;6.75;66.43;97799.09;6195353;28;20046;-69
2023/09/21 03:44:00;;;;;;;3.22;1.23;;;;;;;6.75;66.23;97786.84;6194877;28;20050;-69
2023/09/21 03:47:04;;;;;;;3.58;1.13;;;;;;;6.97;66.16;97800.03;6194664;28;20069;-69
2023/09/21 03:50:12;;;;;;;3.83;1.45;;;;;;;7.05;66.14;97786.69;6195367;28;20054;-68
2023/09/21 03:53:15;;;;;;;4.70;2.53;;;;;;;7.24;66.00;97805.19;6195277;28;20049;-68
2023/09/21 03:56:17;;;;;;;2.22;1.20;;;;;;;7.29;65.95;97799.78;6194505;28;20052;-70
2023/09/21 03:59:18;;;;;;;2.28;1.02;;;;;;;7.47;66.00;97801.72;6194671;28;20042;-70
2023/09/21 04:02:22;;;;;;;3.33;1.10;;;;;;;7.62;65.79;97798.53;6194898;28;20149;-71
2023/09/21 04:05:28;;;;;;;2.65;1.30;;;;;;;7.80;65.68;97807.44;6194195;28;20042;-69
2023/09/21 04:08:32;;;;;;;1.88;1.08;;;;;;;7.95;65.75;97811.22;6194458;28;20438;-70
2023/09/21 04:11:34;;;;;;;1.30;0.90;;;;;;;8.09;65.74;97803.66;6194555;28;20050;-70
2023/09/21 04:14:35;;;;;;;1.20;0.82;;;;;;;8.17;65.85;97798.13;6194413;28;20042;-70
2023/09/21 04:17:39;;;;;;;4.97;1.20;;;;;;;8.40;66.05;97807.69;6195078;28;20039;-70
2023/09/21 04:20:44;;;;;;;1.35;0.90;;;;;;;8.52;65.61;97793.22;6194533;28;20050;-70
2023/09/21 04:23:48;;;;;;;1.85;1.00;;;;;;;8.71;65.46;97803.78;6194441;28;20205;-69
2023/09/21 04:26:49;;;;;;;1.13;0.80;;;;;;;8.81;65.27;97797.25;6195353;28;20193;-69
2023/09/21 04:29:51;;;;;;;1.35;0.93;;;;;;;8.90;64.92;97791.59;6198786;28;20129;-69
2023/09/21 04:32:58;;;;;;;5.57;1.25;;;;;;;9.19;64.29;97792.91;6199302;28;20038;-68
2023/09/21 04:36:04;;;;;;;2.90;1.40;;;;;;;9.39;64.13;97799.91;6199001;28;20502;-69
2023/09/21 04:39:08;;;;;;;2.58;0.90;;;;;;;9.53;63.60;97793.19;6198415;28;20046;-68
2023/09/21 04:42:12;;;;;;;4.30;1.15;;;;;;;9.58;63.66;97793.81;6198218;28;20050;-68
2023/09/21 04:45:20;;;;;;;1.38;0.90;;;;;;;9.71;63.43;97802.84;6199234;28;20511;-70
2023/09/21 04:48:24;;;;;;;1.38;0.70;;;;;;;9.87;62.79;97806.44;6198820;28;20054;-68
2023/09/21 04:51:28;;;;;;;1.88;0.98;;;;;;;10.06;62.02;97801.19;6199136;28;20071;-69
2023/09/21 04:54:34;;;;;;;2.33;1.27;;;;;;;10.20;61.44;97794.41;6199238;28;20042;-68
2023/09/21 04:57:37;;;;;;;2.13;1.15;;;;;;;10.36;60.78;97802.41;6199208;28;20053;-68
2023/09/21 05:00:38;;;;;;;1.23;0.95;;;;;;;10.53;59.89;97799.81;6198648;28;20042;-68
2023/09/21 05:03:44;;;;;;;2.50;1.10;;;;;;;10.70;59.27;97806.84;6198647;28;20050;-69
2023/09/21 05:06:48;;;;;;;1.45;0.73;;;;;;;10.89;58.16;97801.50;6198712;28;20042;-69
2023/09/21 05:09:49;;;;;;;3.03;0.90;;;;;;;11.08;57.36;97804.91;6198494;28;20042;-69
2023/09/21 05:12:53;;;;;;;1.58;1.20;;;;;;;11.28;56.70;97816.19;6197654;28;20050;-69
2023/09/21 05:15:57;;;;;;;4.07;2.40;;;;;;;11.40;56.45;97807.63;6200290;28;20200;-69
2023/09/21 05:19:01;;;;;;;4.22;1.20;;;;;;;11.52;55.70;97801.72;6200752;28;20072;-69
2023/09/21 05:22:05;;;;;;;2.70;1.08;;;;;;;11.70;55.14;97794.59;6201268;28;20042;-69
2023/09/21 05:25:07;;;;;;;1.45;0.95;;;;;;;11.84;53.39;97802.59;6200111;28;20051;-69
2023/09/21 05:28:11;;;;;;;2.53;1.40;;;;;;;12.12;51.51;97806.38;6198123;28;20082;-69
2023/09/21 05:31:12;;;;;;;;;;;;;;;15.73;47.02;97818.00;6198576;28;20042;-69
2023/09/21 05:34:21;;;;;;;1.20;0.93;;;;;;;22.50;33.87;97823.25;6197969;28;20365;-69
2023/09/21 05:37:25;;;;;;;2.85;0.60;;;;;;;27.87;26.28;97818.38;6198039;28;20422;-68
2023/09/21 05:40:29;;;;;;;2.35;0.30;;;;;;;31.52;20.77;97825.72;6196976;28;20066;-68
2023/09/21 05:43:31;;;;;;;1.27;0.45;;;;;;;33.93;17.99;97816.97;6197631;28;20043;-68
2023/09/21 05:46:38;;;;;;;5.88;4.25;;;;;;;36.56;15.09;97826.31;6197811;28;20569;-68
2023/09/21 05:49:43;;;;;;;1.63;0.85;;;;;;;39.41;13.67;97825.34;6197766;28;20038;-69
2023/09/21 05:53:22;;;;;;;1.02;0.80;;;;;;;41.94;11.99;97811.97;6197345;28;20058;-69
2023/09/21 05:56:23;;;;;;;;;;;;;;;44.41;11.74;97817.53;6197149;28;20518;-68
2023/09/21 05:59:31;;;;;;;1.38;0.32;;;;;;;43.45;9.85;97811.78;6197252;28;19917;-68
2023/09/21 06:02:36;;;;;;;0.30;0.30;;;;;;;43.41;9.61;97807.97;6197210;28;20161;-67
2023/09/21 06:05:45;;;;;;;1.02;0.20;;;;;;;44.06;8.54;97805.72;6197278;28;20046;-68
2023/09/21 06:08:46;;;;;;;0.30;0.15;;;;;;;45.38;8.10;97802.31;6197024;28;20034;-68
2023/09/21 06:11:51;;;;;;;1.55;0.30;;;;;;;46.16;7.19;97810.13;6197235;28;20057;-67
2023/09/21 06:14:53;;;;;;;1.55;0.20;;;;;;;47.47;6.87;97805.56;6196649;28;20538;-67
2023/09/21 06:17:57;;;;;;;0.15;0.10;;;;;;;48.39;6.21;97807.88;6196716;28;20062;-67
2023/09/21 06:21:02;;;;;;;0.30;0.10;;;;;;;48.19;5.45;97802.88;6196958;28;20057;-67
2023/09/21 06:24:07;;;;;;;2.50;0.40;;;;;;;47.72;5.38;97796.88;6196777;28;20053;-69
2023/09/21 06:27:09;;;;;;;0.30;0.10;;;;;;;48.19;5.51;97798.13;6194869;28;20065;-67
2023/09/21 06:30:15;;;;;;;0.63;0.40;;;;;;;49.25;5.32;97803.59;6196704;28;20046;-67
2023/09/21 06:33:18;;;;;;;1.10;0.40;;;;;;;49.92;5.00;97801.34;6195153;28;20046;-67
2023/09/21 06:36:22;;;;;;;1.83;1.00;;;;;;;51.10;4.46;97804.19;6196066;28;20456;-67
2023/09/21 06:39:24;;;;;;;0.17;0.13;;;;;;;51.85;4.08;97797.69;6196133;28;20077;-68
2023/09/21 06:42:28;;;;;;;0.20;0.10;;;;;;;52.47;4.08;97792.97;6196456;28;20132;-68
2023/09/21 06:45:34;;;;;;;1.08;0.05;;;;;;;51.97;3.53;97789.28;6196145;28;20042;-67
2023/09/21 06:48:41;;;;;;;0.08;0.00;;;;;;;52.29;3.15;97792.34;6196285;28;20042;-67
2023/09/21 06:51:45;;;;;;;0.30;0.10;;;;;;;52.27;3.19;97787.09;6195935;28;20046;-68
2023/09/21 06:54:52;;;;;;;0.00;0.00;;;;;;;51.92;3.26;97783.88;6195372;28;20054;-67
2023/09/21 06:57:54;;;;;;;3.25;2.35;;;;;;;52.68;3.08;97776.78;6196005;28;20046;-67
2023/09/21 07:00:58;;;;;;;0.57;0.20;;;;;;;53.20;2.72;97783.59;6195467;28;20042;-67
2023/09/21 07:04:01;;;;;;;0.60;0.10;;;;;;;53.15;2.95;97781.84;6196309;28;20136;-68
2023/09/21 07:07:09;;;;;;;0.60;0.10;;;;;;;53.37;3.22;97766.41;6196012;28;20537;-67
2023/09/21 07:10:16;;;;;;;0.35;0.10;;;;;;;53.28;3.45;97768.53;6195293;28;20194;-67
2023/09/21 07:13:20;;;;;;;1.27;0.17;;;;;;;53.94;3.38;97769.13;6195642;28;20050;-67
2023/09/21 07:16:26;;;;;;;1.75;0.10;;;;;;;54.55;3.00;97777.06;6195950;28;20046;-67
2023/09/21 07:19:31;;;;;;;0.63;0.10;;;;;;;54.55;3.05;97768.63;6195476;28;20038;-67
2023/09/21 07:22:33;;;;;;;3.30;3.00;;;;;;;54.33;2.65;97756.06;6195221;28;20053;-67
2023/09/21 07:25:37;;;;;;;2.67;0.40;;;;;;;54.64;2.47;97759.97;6195916;28;20054;-67
2023/09/21 07:28:57;;;;;;;0.85;0.47;;;;;;;53.43;2.92;97764.16;6194180;28;20050;-67
2023/09/21 07:32:01;;;;;;;0.22;0.20;;;;;;;52.99;2.67;97749.19;6195433;28;20086;-68
2023/09/21 07:35:06;;;;;;;1.25;0.20;;;;;;;52.33;2.65;97745.56;6194940;28;20502;-67
2023/09/21 07:38:08;;;;;;;2.78;0.55;;;;;;;52.18;2.64;97749.06;6194628;28;20074;-67
2023/09/21 07:41:13;;;;;;;1.95;0.28;;;;;;;52.49;2.64;97749.31;6195263;28;20038;-67
2023/09/21 07:44:18;;;;;;;2.13;0.20;;;;;;;52.58;2.55;97735.13;6195404;28;20042;-67
2023/09/21 07:47:26;;;;;;;0.30;0.10;;;;;;;52.20;2.29;97741.94;6195161;28;20050;-67
2023/09/21 07:50:34;;;;;;;0.10;0.10;;;;;;;53.19;2.38;97753.81;6195286;28;20042;-67
2023/09/21 07:53:42;;;;;;;0.20;0.10;;;;;;;53.98;1.95;97750.31;6194997;28;20141;-68
2023/09/21 07:56:47;;;;;;;0.00;0.00;;;;;;;53.68;1.85;97735.88;6194654;28;20532;-68
2023/09/21 07:59:56;;;;;;;0.15;0.10;;;;;;;53.66;2.20;97741.03;6195280;28;20521;-67
2023/09/21 08:02:59;;;;;;;0.13;0.13;;;;;;;53.23;2.04;97737.88;6198210;28;20054;-69
2023/09/21 08:06:03;;;;;;;0.20;0.10;;;;;;;52.34;2.42;97729.56;6199895;28;20074;-67
2023/09/21 08:09:08;;;;;;;0.30;0.08;;;;;;;51.83;2.48;97730.69;6200095;28;20042;-69
2023/09/21 08:12:12;;;;;;;0.00;0.00;;;;;;;51.81;2.56;97735.00;6199713;28;20046;-67
2023/09/21 08:15:19;;;;;;;0.10;0.10;;;;;;;52.76;2.35;97730.06;6199510;28;20046;-67
2023/09/21 08:18:20;;;;;;;0.75;0.10;;;;;;;51.34;2.39;97705.34;6199701;28;20568;-67
2023/09/21 08:21:21;;;;;;;2.75;0.30;;;;;;;50.76;2.23;97702.41;6199607;28;20567;-68
2023/09/21 08:24:23;;;;;;;0.75;0.20;;;;;;;50.91;2.73;97702.94;6199532;28;20189;-67
2023/09/21 08:27:29;;;;;;;1.00;0.10;;;;;;;50.64;2.94;97705.13;6199380;28;20042;-68
2023/09/21 08:30:33;;;;;;;0.10;0.10;;;;;;;49.98;2.96;97699.28;6198400;28;20053;-67
2023/09/21 08:33:35;;;;;;;0.03;0.03;;;;;;;49.17;3.03;97693.41;6199033;28;20050;-68
2023/09/21 08:36:37;;;;;;;0.10;0.10;;;;;;;48.28;2.93;97690.13;6197437;28;20057;-68
2023/09/21 08:39:39;;;;;;;0.08;0.08;;;;;;;48.35;3.37;97672.88;6198363;28;20133;-68
2023/09/21 08:42:41;;;;;;;0.10;0.10;;;;;;;47.51;3.58;97671.94;6195930;28;20046;-68
2023/09/21 08:45:49;;;;;;;0.30;0.10;;;;;;;46.89;3.34;97671.88;6198975;28;20042;-69
2023/09/21 08:48:58;;;;;;;0.10;0.10;;;;;;;48.24;3.37;97677.13;6198954;28;20042;-68
2023/09/21 08:52:02;;;;;;;0.93;0.03;;;;;;;49.66;2.80;97676.38;6198314;28;20513;-67
2023/09/21 08:55:09;;;;;;;0.55;0.10;;;;;;;50.97;2.96;97667.94;6198890;28;20050;-68
2023/09/21 08:58:12;;;;;;;2.08;1.75;;;;;;;51.41;2.60;97682.34;6198303;28;20057;-68
2023/09/21 09:01:17;;;;;;;0.20;0.10;;;;;;;51.22;2.85;97680.06;6198773;28;20038;-69
2023/09/21 09:04:21;;;;;;;0.28;0.00;;;;;;;51.26;2.81;97671.78;6197958;28;20090;-68
2023/09/21 09:07:23;;;;;;;0.75;0.10;;;;;;;51.42;2.77;97667.16;6197738;28;20507;-68
2023/09/21 09:10:27;;;;;;;0.77;0.10;;;;;;;50.63;3.08;97674.66;6179834;28;20053;-69
2023/09/21 09:13:33;;;;;;;0.20;0.10;;;;;;;49.16;3.45;97668.59;6197277;28;20140;-68
2023/09/21 09:16:37;;;;;;;0.60;0.20;;;;;;;47.32;3.80;97679.69;6198052;28;20046;-67
2023/09/21 09:19:42;;;;;;;1.35;0.13;;;;;;;46.43;4.77;97661.78;6198118;28;20038;-67
2023/09/21 09:22:51;;;;;;;0.10;0.00;;;;;;;45.35;4.63;97647.28;6198208;28;20050;-68
2023/09/21 09:25:57;;;;;;;3.72;2.38;;;;;;;44.03;4.93;97642.69;6198135;28;20117;-69
2023/09/21 09:29:09;;;;;;;0.95;0.10;;;;;;;43.51;5.38;97636.06;6197965;28;20069;-69
2023/09/21 09:32:16;;;;;;;0.85;0.20;;;;;;;43.33;5.87;97636.84;6197664;28;20141;-68
2023/09/21 09:35:20;;;;;;;0.10;0.10;;;;;;;43.86;5.66;97628.47;6197078;28;20058;-68
2023/09/21 09:38:23;;;;;;;0.20;0.10;;;;;;;45.04;5.31;97622.84;6197841;28;20391;-69
2023/09/21 09:41:28;;;;;;;1.25;0.40;;;;;;;46.33;4.89;97638.63;6197356;28;20047;-69
2023/09/21 09:44:36;;;;;;;0.40;0.20;;;;;;;45.99;4.98;97643.84;6197557;28;20046;-68
2023/09/21 09:47:44;;;;;;;0.32;0.10;;;;;;;43.92;5.60;97627.28;6197508;28;20038;-68
2023/09/21 09:50:57;;;;;;;0.40;0.10;;;;;;;41.76;6.32;97621.84;6197474;28;20043;-68
2023/09/21 09:54:00;;;;;;;0.50;0.20;;;;;;;41.14;6.49;97620.38;6197486;28;20061;-69
2023/09/21 09:57:11;;;;;;;0.10;0.10;;;;;;;41.28;6.72;97604.88;6197327;28;20045;-69
2023/09/21 10:00:15;;;;;;;0.93;0.10;;;;;;;41.52;6.50;97616.13;6196956;28;20104;-69
2023/09/21 10:03:20;;;;;;;1.02;0.80;;;;;;;41.63;7.33;97612.22;6197298;28;20417;-67
2023/09/21 10:06:23;;;;;;;0.57;0.28;;;;;;;42.84;6.49;97610.97;6197038;28;20053;-68
2023/09/21 10:09:29;;;;;;;0.80;0.17;;;;;;;42.70;6.26;97607.19;6196861;28;20042;-69
2023/09/21 10:12:32;;;;;;;1.77;0.22;;;;;;;42.69;6.54;97605.53;6196989;28;20418;-69
2023/09/21 10:15:40;;;;;;;4.20;2.65;;;;;;;41.62;6.70;97604.22;6196836;28;20054;-69
2023/09/21 10:18:43;;;;;;;3.00;1.70;;;;;;;40.30;6.86;97614.25;6196789;28;20038;-69
2023/09/21 10:21:47;;;;;;;3.00;0.70;;;;;;;39.72;7.08;97595.03;6195929;28;20046;-68
2023/09/21 10:24:53;;;;;;;0.40;0.38;;;;;;;40.17;6.69;97599.84;6196246;28;20050;-68
2023/09/21 10:28:19;;;;;;;0.52;0.30;;;;;;;39.90;7.01;97610.25;6196570;28;20042;-68
2023/09/21 10:31:27;;;;;;;1.20;0.30;;;;;;;39.83;7.24;97601.41;6196398;28;20042;-68
2023/09/21 10:34:31;;;;;;;0.10;0.10;;;;;;;39.14;7.31;97594.16;6196090;28;20058;-68
2023/09/21 10:37:32;;;;;;;1.67;0.20;;;;;;;37.99;7.43;97594.50;6196479;28;20510;-68
2023/09/21 10:40:40;;;;;;;1.15;0.30;;;;;;;37.51;7.75;97588.69;6196480;28;20042;-68
2023/09/21 10:43:45;;;;;;;0.10;0.10;;;;;;;38.03;7.74;97596.47;6196512;28;20044;-69
2023/09/21 10:46:49;;;;;;;0.20;0.00;;;;;;;38.26;7.48;97589.81;6196210;28;20038;-68
2023/09/21 10:49:51;;;;;;;0.70;0.30;;;;;;;38.08;7.23;97593.78;6195823;28;20145;-68
2023/09/21 10:52:55;;;;;;;0.38;0.20;;;;;;;37.63;7.69;97585.84;6196744;28;20046;-68
2023/09/21 10:56:02;;;;;;;1.98;0.30;;;;;;;37.21;8.34;97586.34;6196094;28;20046;-69
2023/09/21 10:59:09;;;;;;;2.55;1.23;;;;;;;37.21;7.98;97583.59;6196054;28;20505;-70
2023/09/21 11:02:13;;;;;;;0.60;0.20;;;;;;;36.88;7.87;97576.22;6195583;28;20055;-69
2023/09/21 11:05:16;;;;;;;0.50;0.10;;;;;;;36.50;7.93;97586.84;6195621;28;20038;-69
2023/09/21 11:08:26;;;;;;;0.20;0.10;;;;;;;36.61;8.03;97583.25;6195670;28;20042;-69
2023/09/21 11:11:34;;;;;;;0.20;0.10;;;;;;;36.78;8.22;97580.50;6195520;28;20041;-70
2023/09/21 11:14:39;;;;;;;0.30;0.10;;;;;;;37.00;7.89;97572.31;6195404;28;20415;-69
2023/09/21 11:17:46;;;;;;;1.92;1.17;;;;;;;37.00;8.33;97574.22;6195377;28;20501;-68
2023/09/21 11:20:49;;;;;;;;;;;;;;;37.11;8.48;97580.72;6195555;28;20045;-68
2023/09/21 11:23:55;;;;;;;1.40;0.30;;;;;;;36.38;8.66;97580.63;6195718;28;19921;-68
2023/09/21 11:27:01;;;;;;;0.82;0.38;;;;;;;35.79;8.90;97577.31;6195286;28;20034;-70
2023/09/21 11:30:10;;;;;;;1.13;0.25;;;;;;;35.12;9.23;97583.28;6195333;28;20556;-68
2023/09/21 11:33:18;;;;;;;3.30;0.50;;;;;;;35.14;9.36;97581.16;6195330;28;20042;-69
2023/09/21 11:36:20;;;;;;;1.45;0.30;;;;;;;35.40;9.36;97575.13;6194149;28;20050;-68
2023/09/21 11:39:27;;;;;;;0.90;0.40;;;;;;;34.46;9.79;97560.63;6194616;28;20054;-69
2023/09/21 11:42:33;;;;;;;1.38;0.30;;;;;;;33.45;10.73;97552.97;6194907;28;20430;-69
2023/09/21 11:45:34;;;;;;;0.38;0.10;;;;;;;32.44;11.44;97567.78;6194567;28;20042;-69
2023/09/21 11:48:36;;;;;;;0.30;0.30;;;;;;;31.49;11.64;97559.59;6194356;28;20050;-68
2023/09/21 11:51:38;;;;;;;2.65;1.67;;;;;;;31.07;12.61;97553.63;6194204;28;20429;-68
2023/09/21 11:54:44;;;;;;;3.50;1.40;;;;;;;30.98;12.70;97563.06;6194718;28;20042;-70
2023/09/21 11:57:45;;;;;;;2.08;0.60;;;;;;;31.36;11.89;97565.91;6194592;28;20047;-69
2023/09/21 12:01:12;;;;;;;1.52;0.40;;;;;;;31.77;11.45;97562.78;6195089;28;20432;-70
2023/09/21 12:04:16;;;;;;;1.63;0.98;;;;;;;31.79;10.75;97567.16;6194552;28;20054;-69
2023/09/21 12:07:21;;;;;;;2.55;1.30;;;;;;;31.30;11.18;97559.41;6194688;28;20046;-69
2023/09/21 12:10:27;;;;;;;2.28;0.85;;;;;;;30.67;10.96;97545.53;6195114;28;20042;-68
2023/09/21 12:13:31;;;;;;;2.35;0.63;;;;;;;30.28;11.59;97566.22;6194904;28;20042;-69
2023/09/21 12:16:35;;;;;;;1.95;0.70;;;;;;;29.66;11.88;97556.47;6194782;28;20050;-69
2023/09/21 12:19:39;;;;;;;4.85;1.73;;;;;;;29.06;12.16;97559.72;6194990;28;20077;-69
2023/09/21 12:22:45;;;;;;;2.22;0.80;;;;;;;28.53;12.72;97553.09;6194739;28;20054;-69
2023/09/21 12:25:47;;;;;;;2.05;0.70;;;;;;;28.17;13.01;97560.28;6194310;28;20054;-69
2023/09/21 12:28:53;;;;;;;3.25;0.95;;;;;;;27.82;13.20;97550.34;6194307;28;20588;-70
2023/09/21 12:31:58;;;;;;;4.88;1.10;;;;;;;27.51;13.97;97543.31;6194607;28;20050;-70
2023/09/21 12:35:06;;;;;;;4.38;1.25;;;;;;;27.39;14.11;97550.25;6194493;28;20461;-69
2023/09/21 12:38:08;;;;;;;4.10;1.90;;;;;;;27.06;14.29;97543.41;6194795;28;20524;-69
2023/09/21 12:41:13;;;;;;;4.18;1.95;;;;;;;26.73;15.14;97551.03;6194991;28;20429;-70
2023/09/21 12:44:20;;;;;;;3.63;2.03;;;;;;;26.56;15.36;97544.13;6194948;28;20425;-69
2023/09/21 12:47:27;;;;;;;4.63;1.52;;;;;;;26.46;15.74;97538.09;6194852;28;20038;-71
2023/09/21 12:50:33;;;;;;;2.55;1.33;;;;;;;26.36;16.09;97541.91;6198907;28;20046;-70
2023/09/21 12:53:37;;;;;;;4.43;1.80;;;;;;;26.45;15.86;97544.53;6198649;28;20046;-69
2023/09/21 12:56:41;;;;;;;7.28;3.53;;;;;;;26.18;16.75;97550.34;6198825;28;20429;-69
2023/09/21 12:59:46;;;;;;;9.88;3.13;;;;;;;25.82;17.21;97541.13;6198638;28;20038;-69
2023/09/21 13:02:47;;;;;;;6.40;2.45;;;;;;;25.58;17.60;97539.44;6197515;28;20534;-69
2023/09/21 13:05:54;;;;;;;6.88;2.45;;;;;;;25.36;17.71;97544.59;6197941;28;20053;-69
2023/09/21 13:08:59;;;;;;;4.15;1.75;;;;;;;25.06;18.17;97536.31;6198484;28;20038;-70
2023/09/21 13:12:03;;;;;;;8.43;4.45;;;;;;;24.71;18.69;97532.22;6198532;28;20042;-70
2023/09/21 13:15:05;;;;;;;9.27;4.88;;;;;;;24.41;18.93;97531.09;6196998;28;20553;-70
2023/09/21 13:18:08;;;;;;;10.15;5.13;;;;;;;24.04;19.41;97534.31;6197456;28;20537;-69
2023/09/21 13:21:15;;;;;;;10.27;4.60;;;;;;;23.54;20.31;97533.38;6197903;28;20544;-70
2023/09/21 13:24:19;;;;;;;12.32;3.45;;;;;;;23.02;20.54;97531.72;6197518;28;20046;-70
2023/09/21 13:27:24;;;;;;;8.93;3.10;;;;;;;22.58;21.08;97537.16;6198112;28;20556;-70
2023/09/21 13:30:25;;;;;;;19.17;3.90;;;;;;;22.20;21.55;97538.44;6197785;28;20073;-70
2023/09/21 13:33:27;;;;;;;8.30;2.85;;;;;;;21.79;22.21;97535.38;6197132;28;20576;-70
2023/09/21 13:36:29;;;;;;;5.50;2.53;;;;;;;21.49;22.56;97540.13;6197547;28;20062;-69
2023/09/21 13:39:34;;;;;;;3.72;1.95;;;;;;;21.19;22.98;97537.75;6197551;28;20054;-70
2023/09/21 13:42:36;;;;;;;4.65;1.70;;;;;;;20.90;23.17;97538.75;6197003;28;20047;-68
2023/09/21 13:45:41;;;;;;;6.60;2.10;;;;;;;20.61;23.20;97544.22;6196726;28;20058;-69
2023/09/21 13:48:46;;;;;;;5.13;2.10;;;;;;;20.36;23.75;97535.81;6197799;28;20038;-68
2023/09/21 13:51:54;;;;;;;7.13;3.33;;;;;;;20.15;24.32;97527.97;6197695;28;20046;-68
2023/09/21 13:54:56;;;;;;;6.55;2.33;;;;;;;19.91;24.54;97530.25;6197439;28;20050;-68
2023/09/21 13:58:00;;;;;;;4.88;1.88;;;;;;;19.62;25.04;97532.91;6197668;28;20371;-70
2023/09/21 14:01:08;;;;;;;4.70;2.10;;;;;;;19.38;25.76;97533.31;6196550;28;20046;-70
2023/09/21 14:04:09;;;;;;;3.85;1.48;;;;;;;19.13;25.85;97540.81;6196417;28;20105;-69
2023/09/21 14:07:14;;;;;;;2.47;1.33;;;;;;;19.01;26.28;97533.94;6197116;28;20038;-70
2023/09/21 14:10:18;;;;;;;2.30;1.23;;;;;;;18.73;26.45;97536.31;6197161;28;20034;-69
2023/09/21 14:13:23;;;;;;;2.35;1.42;;;;;;;18.63;26.93;97532.78;6195596;28;20054;-70
2023/09/21 14:16:27;;;;;;;2.58;1.35;;;;;;;18.45;27.23;97550.34;6196640;28;20050;-70
2023/09/21 14:19:29;;;;;;;2.28;1.30;;;;;;;18.12;27.64;97557.59;6197213;28;20058;-71
2023/09/21 14:22:30;;;;;;;2.67;1.40;;;;;;;17.89;28.11;97560.38;6196855;28;20214;-68
2023/09/21 14:25:32;;;;;;;3.88;1.90;;;;;;;17.72;28.19;97553.78;6197722;28;20053;-70
2023/09/21 14:28:35;;;;;;;3.83;2.05;;;;;;;17.65;28.49;97559.72;6196509;28;20505;-69
2023/09/21 14:31:37;;;;;;;5.22;1.80;;;;;;;17.60;28.81;97564.56;6197781;28;20053;-70
2023/09/21 14:34:39;;;;;;;5.10;1.48;;;;;;;17.43;29.12;97565.94;6197368;28;20537;-70
2023/09/21 14:37:42;;;;;;;4.10;1.50;;;;;;;17.23;29.74;97564.91;6197118;28;20050;-69
2023/09/21 14:40:50;;;;;;;4.00;1.70;;;;;;;17.18;29.91;97564.44;6197361;28;20359;-69